KXNA/XNA METAR and TAF weather

Enter ICAO airport designator
Station Type Date Time Source
KXNA METAR 2019/06/19 03:55 UTC NOAA

KXNA 190355Z 35003KT 10SM BKN110 22/19 A2991


Station Type Date Time Source
KXNA Decoded METAR 2019/06/19 03:55 UTC NOAA

NORTHWEST ARKANSAS REGIONAL, AR, United States (KXNA) 36-17N 94-18W
Jun 18, 2019 - 11:55 PM EDT / 2019.06.19 0355 UTC
Wind: from the N (350 degrees) at 3 MPH (3 KT):0
Visibility: 10 mile(s):0
Sky conditions: mostly cloudy
Temperature: 71 F (22 C)
Dew Point: 66 F (19 C)
Relative Humidity: 83%
Pressure (altimeter): 29.91 in. Hg (1012 hPa)
ob: KXNA 190355Z 35003KT 10SM BKN110 22/19 A2991
cycle: 4

Station Type Date Time Source
KXNA TAF 2019/06/19 06:22 UTC NOAA

TAF KXNA 190520Z 1906/2006 35003KT P6SM VCTS SCT040CB BKN110
FM191000 17005KT P6SM VCTS OVC050CB
TEMPO 1910/1913 VRB15G25KT 3SM TSRA BKN025CB
FM191300 21007KT P6SM BKN025
FM191700 24010KT P6SM BKN035
FM200000 26008KT P6SM BKN250

Example: see airport list